»·PEaware :: ACA796 KLAX-CYYZ

ACA796 :: KLAX-CYYZ

FLIGHT INFORMATION

Flight Status: Arrived
Operator:
Air Canada
More flights by this operator :: More flights under this callsign
Pilot: Corey A. (5313)
Aircraft: AIRBUS A320
(A320)
More flights by this aircraft type
Origin: KLAX Los Angeles Intl
United States
Destination: CYYZ Toronto/Pearson Intl
Canada
More flights between these airports :: More routes between these airports
Route: +LOOP7 DAG EED J236 TBC GLD J146 LNK KP69G KG75K MONEE NUBER1
File this flight plan on PilotEdge
Remarks: AIR CANADA
Altitude:
(Current/Filed)
350ft
Speed:
(Current/Filed)
450kts
Departed: 25-Apr-15 02:33 PM
Arrived: 25-Apr-15 05:36 PM
Distance/Time
Traveled:
1884nm/3:03
Distance/Time
To Go:
Arrived

Flight Plot

Page will automatically refresh every two minutes.


Map Options




Map Legend


Flown Route
Filed Route
Departure Airport
Arrival Airport
Navaid (VOR, NDB)
Fix

Horizontal Profiles

Position Reports

Time Latitude Longitude Heading Altitude Ground
Speed
25-Apr-15 13:49 33.945904 -118.404617 92 131ft 0kts
25-Apr-15 13:50 33.945904 -118.404616 92 131ft 0kts
25-Apr-15 13:59 33.945904 -118.404612 92 140ft 0kts
25-Apr-15 14:00 33.945904 -118.404612 92 140ft 0kts
25-Apr-15 14:01 33.945904 -118.404612 92 140ft 0kts
25-Apr-15 14:02 33.945904 -118.404612 92 140ft 0kts
25-Apr-15 14:03 33.945904 -118.404612 92 140ft 0kts
25-Apr-15 14:04 33.945904 -118.404612 92 140ft 0kts
25-Apr-15 14:05 33.945904 -118.404612 92 140ft 0kts
25-Apr-15 14:06 33.945904 -118.404612 92 140ft 0kts
25-Apr-15 14:07 33.945904 -118.404612 92 140ft 0kts
25-Apr-15 14:08 33.945904 -118.404612 92 140ft 0kts
25-Apr-15 14:09 33.945904 -118.404612 92 140ft 0kts
25-Apr-15 14:10 33.945904 -118.404612 92 140ft 0kts
25-Apr-15 14:11 33.945904 -118.404612 92 140ft 0kts
25-Apr-15 14:12 33.945904 -118.404612 92 140ft 0kts
25-Apr-15 14:13 33.945904 -118.404612 92 140ft 0kts
25-Apr-15 14:14 33.945904 -118.404612 92 140ft 0kts
25-Apr-15 14:15 33.945904 -118.404612 92 140ft 0kts
25-Apr-15 14:16 33.945904 -118.404612 92 140ft 0kts
25-Apr-15 14:17 33.945904 -118.404612 92 140ft 0kts
25-Apr-15 14:18 33.945904 -118.404612 92 140ft 0kts
25-Apr-15 14:19 33.945904 -118.404612 92 140ft 0kts
25-Apr-15 14:20 33.945911 -118.404811 92 140ft 0kts
25-Apr-15 14:21 33.945927 -118.405328 92 140ft 2kts
25-Apr-15 14:22 33.945934 -118.405557 92 140ft 0kts
25-Apr-15 14:23 33.945934 -118.405555 92 140ft 0kts
25-Apr-15 14:24 33.945934 -118.405553 92 140ft 0kts
25-Apr-15 14:25 33.946503 -118.405824 346 140ft 1kts
25-Apr-15 14:26 33.946505 -118.405825 346 140ft 0kts
25-Apr-15 14:27 33.947125 -118.405907 354 140ft 12kts
25-Apr-15 14:28 33.948942 -118.403769 83 140ft 12kts
25-Apr-15 14:29 33.949459 -118.401749 351 140ft 0kts
25-Apr-15 14:30 33.949482 -118.401753 351 140ft 3kts
25-Apr-15 14:31 33.948373 -118.419837 261 147ft 144kts
25-Apr-15 14:32 33.943919 -118.468560 262 971ft 168kts
25-Apr-15 14:33 33.937895 -118.537645 262 3336ft 239kts
25-Apr-15 14:34 33.915950 -118.613633 208 7609ft 265kts
25-Apr-15 14:35 33.841962 -118.587404 135 10910ft 343kts
25-Apr-15 14:36 33.845815 -118.470897 40 13148ft 400kts
25-Apr-15 14:37 33.941484 -118.408673 37 17028ft 404kts
25-Apr-15 14:38 34.010939 -118.294136 49 19579ft 437kts
25-Apr-15 14:39 34.081078 -118.171006 49 21721ft 451kts
25-Apr-15 14:40 34.153245 -118.043729 49 22983ft 473kts
25-Apr-15 14:41 34.230857 -117.907434 51 23350ft 494kts
25-Apr-15 14:42 34.291711 -117.798717 50 24158ft 463kts
25-Apr-15 14:43 34.364597 -117.668632 51 25569ft 469kts
25-Apr-15 14:44 34.450886 -117.514176 51 27009ft 478kts
25-Apr-15 14:45 34.513181 -117.402341 51 27990ft 484kts
25-Apr-15 14:46 34.588991 -117.265750 51 29128ft 490kts
25-Apr-15 14:47 34.665057 -117.128159 52 30460ft 489kts
25-Apr-15 14:48 34.740545 -116.991098 52 31687ft 488kts
25-Apr-15 14:49 34.816053 -116.853530 52 32811ft 487kts
25-Apr-15 14:50 34.891295 -116.715883 52 33845ft 487kts
25-Apr-15 14:51 34.956165 -116.571408 75 34770ft 494kts
25-Apr-15 14:52 34.949980 -116.403895 95 34807ft 502kts
25-Apr-15 14:53 34.934493 -116.235339 95 34810ft 498kts
25-Apr-15 14:54 34.919266 -116.065992 95 34810ft 502kts
25-Apr-15 14:55 34.904546 -115.898703 97 34822ft 490kts
25-Apr-15 14:56 34.889638 -115.733141 97 34825ft 490kts
25-Apr-15 14:57 34.874586 -115.567538 97 34821ft 490kts
25-Apr-15 14:58 34.859362 -115.401827 98 34814ft 491kts
25-Apr-15 14:59 34.844021 -115.236831 98 34806ft 491kts
25-Apr-15 15:00 34.828408 -115.071194 98 34800ft 492kts
25-Apr-15 15:01 34.812574 -114.905565 98 34797ft 492kts
25-Apr-15 15:02 34.796508 -114.739842 99 34797ft 492kts
25-Apr-15 15:03 34.780194 -114.574071 99 34798ft 493kts
25-Apr-15 15:04 34.796226 -114.410489 63 34794ft 498kts
25-Apr-15 15:05 34.860294 -114.261155 60 34786ft 498kts
25-Apr-15 15:06 34.925885 -114.112486 60 34799ft 497kts
25-Apr-15 15:07 34.991292 -113.963582 61 34815ft 494kts
25-Apr-15 15:08 35.055800 -113.815721 62 34836ft 495kts
25-Apr-15 15:09 35.120372 -113.667036 62 34840ft 494kts
25-Apr-15 15:10 35.184680 -113.518369 62 34844ft 495kts
25-Apr-15 15:11 35.248970 -113.369058 62 34856ft 497kts
25-Apr-15 15:12 35.312836 -113.220085 62 34873ft 494kts
25-Apr-15 15:13 35.376689 -113.070462 62 34899ft 495kts
25-Apr-15 15:14 35.440386 -112.920525 62 34918ft 495kts
25-Apr-15 15:15 35.503678 -112.770867 62 34931ft 494kts
25-Apr-15 15:16 35.566965 -112.620539 62 34938ft 494kts
25-Apr-15 15:17 35.629983 -112.470166 62 34938ft 495kts
25-Apr-15 15:18 35.692715 -112.319789 63 34933ft 494kts
25-Apr-15 15:19 35.755399 -112.168869 63 34921ft 494kts
25-Apr-15 15:20 35.817799 -112.017864 63 34912ft 494kts
25-Apr-15 15:21 35.880066 -111.866517 63 34911ft 494kts
25-Apr-15 15:22 35.941846 -111.715658 63 34908ft 493kts
25-Apr-15 15:23 36.003771 -111.563744 63 34880ft 494kts
25-Apr-15 15:24 36.065612 -111.411307 63 34862ft 496kts
25-Apr-15 15:25 36.127292 -111.258260 65 34850ft 496kts
25-Apr-15 15:26 36.187038 -111.104758 64 34839ft 496kts
25-Apr-15 15:27 36.325820 -110.752812 64 34828ft 497kts
25-Apr-15 15:28 36.609303 -110.021300 65 35111ft 496kts
25-Apr-15 15:29 36.847086 -109.394088 65 34872ft 494kts
25-Apr-15 15:30 37.105253 -108.698419 66 34845ft 501kts
25-Apr-15 15:31 37.336947 -108.060264 66 34886ft 508kts
25-Apr-15 15:32 37.565310 -107.417820 67 34933ft 508kts
25-Apr-15 15:33 37.791043 -106.768918 67 34904ft 505kts
25-Apr-15 15:34 38.071364 -105.942671 68 34891ft 494kts
25-Apr-15 15:35 38.310006 -105.220165 68 34786ft 499kts
25-Apr-15 15:36 38.615727 -104.266987 68 34754ft 506kts
25-Apr-15 15:37 38.846865 -103.524126 68 34777ft 515kts
25-Apr-15 15:38 39.099207 -102.689506 68 34775ft 515kts
25-Apr-15 15:39 39.417375 -101.606033 64 34808ft 496kts
25-Apr-15 15:40 39.640862 -100.937917 63 34781ft 498kts
25-Apr-15 15:41 39.857696 -100.274087 64 34784ft 497kts
25-Apr-15 15:42 40.067341 -99.616903 67 34818ft 482kts
25-Apr-15 15:43 40.301154 -98.863989 67 34899ft 478kts
25-Apr-15 15:44 40.617351 -97.811309 68 34858ft 469kts
25-Apr-15 15:45 40.802712 -97.173973 68 34855ft 459kts
25-Apr-15 15:46 40.936218 -96.694623 74 34849ft 464kts
25-Apr-15 15:47 40.971179 -96.530768 72 34854ft 461kts
25-Apr-15 15:48 41.007224 -96.368156 72 34857ft 461kts
25-Apr-15 15:49 41.043207 -96.204633 72 34860ft 461kts
25-Apr-15 15:50 41.078927 -96.040975 72 34857ft 461kts
25-Apr-15 15:51 41.114324 -95.877619 73 34849ft 462kts
25-Apr-15 15:52 41.149657 -95.713065 73 34853ft 462kts
25-Apr-15 15:53 41.178870 -95.576095 73 34856ft 462kts
25-Apr-15 15:54 41.213610 -95.412006 73 34857ft 462kts
25-Apr-15 15:55 41.248162 -95.247554 73 34861ft 461kts
25-Apr-15 15:56 41.282417 -95.083189 73 34855ft 460kts
25-Apr-15 15:57 41.316416 -94.918782 73 34849ft 459kts
25-Apr-15 15:58 41.349953 -94.755265 73 34848ft 458kts
25-Apr-15 15:59 41.383355 -94.591101 73 34847ft 458kts
25-Apr-15 16:00 41.416500 -94.426872 73 34851ft 458kts
25-Apr-15 16:01 41.449391 -94.262618 73 34850ft 456kts
25-Apr-15 16:02 41.481961 -94.098576 73 34846ft 457kts
25-Apr-15 16:03 41.517250 -93.936347 68 34844ft 456kts
25-Apr-15 16:04 41.560432 -93.777126 68 34845ft 455kts
25-Apr-15 16:05 41.603388 -93.617830 68 34846ft 455kts
25-Apr-15 16:06 41.646092 -93.458066 68 34862ft 455kts
25-Apr-15 16:07 41.688350 -93.298839 68 34861ft 455kts
25-Apr-15 16:08 41.730474 -93.138961 68 34861ft 454kts
25-Apr-15 16:09 41.772321 -92.979143 69 34860ft 453kts
25-Apr-15 16:10 41.814454 -92.817264 69 34870ft 469kts
25-Apr-15 16:11 41.857190 -92.651475 69 34870ft 469kts
25-Apr-15 16:12 41.899653 -92.485876 69 34873ft 467kts
25-Apr-15 16:13 41.941769 -92.320422 69 34879ft 467kts
25-Apr-15 16:14 41.983449 -92.155567 69 34886ft 466kts
25-Apr-15 16:15 42.025004 -91.990024 69 34888ft 466kts
25-Apr-15 16:16 42.066668 -91.822809 68 34884ft 471kts
25-Apr-15 16:17 42.108164 -91.655134 68 34882ft 470kts
25-Apr-15 16:18 42.149209 -91.488101 68 34886ft 469kts
25-Apr-15 16:19 42.190084 -91.320492 68 34894ft 469kts
25-Apr-15 16:20 42.230657 -91.152924 69 34898ft 468kts
25-Apr-15 16:21 42.270904 -90.985454 69 34900ft 467kts
25-Apr-15 16:22 42.310717 -90.818542 69 34905ft 467kts
25-Apr-15 16:23 42.350330 -90.651265 69 34908ft 466kts
25-Apr-15 16:24 42.389628 -90.484110 69 34911ft 468kts
25-Apr-15 16:25 42.428505 -90.317462 69 34913ft 466kts
25-Apr-15 16:26 42.467292 -90.149943 70 34914ft 464kts
25-Apr-15 16:27 42.504992 -89.982060 75 34916ft 466kts
25-Apr-15 16:28 42.530825 -89.807489 75 34919ft 475kts
25-Apr-15 16:29 42.558497 -89.632100 75 34919ft 475kts
25-Apr-15 16:30 42.585902 -89.456629 75 34919ft 474kts
25-Apr-15 16:31 42.612968 -89.281237 75 34920ft 473kts
25-Apr-15 16:32 42.639622 -89.106534 75 34919ft 472kts
25-Apr-15 16:33 42.666026 -88.931497 76 34918ft 471kts
25-Apr-15 16:34 42.692145 -88.756373 76 34920ft 472kts
25-Apr-15 16:35 42.717974 -88.581261 76 34924ft 471kts
25-Apr-15 16:36 42.743388 -88.406963 76 34926ft 470kts
25-Apr-15 16:37 42.768578 -88.232235 76 34927ft 470kts
25-Apr-15 16:38 42.793551 -88.056998 76 34927ft 470kts
25-Apr-15 16:39 42.818392 -87.880626 76 34930ft 481kts
25-Apr-15 16:40 42.843235 -87.702139 76 34930ft 480kts
25-Apr-15 16:41 42.867883 -87.522930 77 34930ft 479kts
25-Apr-15 16:42 42.892184 -87.343988 77 34926ft 479kts
25-Apr-15 16:43 42.916159 -87.165278 77 34920ft 479kts
25-Apr-15 16:44 42.939936 -86.985833 77 34908ft 479kts
25-Apr-15 16:45 42.963385 -86.806612 78 34896ft 479kts
25-Apr-15 16:46 42.986552 -86.627171 78 34889ft 479kts
25-Apr-15 16:47 43.009351 -86.448332 78 34884ft 478kts
25-Apr-15 16:48 43.031978 -86.268505 78 34885ft 479kts
25-Apr-15 16:49 43.054296 -86.088764 78 34886ft 479kts
25-Apr-15 16:50 43.076418 -85.907902 78 34887ft 487kts
25-Apr-15 16:51 43.098461 -85.725712 78 34893ft 487kts
25-Apr-15 16:52 43.120333 -85.542169 78 34894ft 487kts
25-Apr-15 16:53 43.141846 -85.359018 78 34903ft 487kts
25-Apr-15 16:54 43.163054 -85.175864 79 34908ft 487kts
25-Apr-15 16:55 43.184029 -84.992012 79 34917ft 487kts
25-Apr-15 16:56 43.204719 -84.807955 79 34932ft 488kts
25-Apr-15 16:57 43.225140 -84.623540 79 34943ft 488kts
25-Apr-15 16:58 43.244365 -84.439597 83 34940ft 489kts
25-Apr-15 16:59 43.255601 -84.252976 82 34935ft 490kts
25-Apr-15 17:00 43.268534 -84.066455 82 34939ft 491kts
25-Apr-15 17:01 43.279056 -83.910566 82 34942ft 493kts
25-Apr-15 17:02 43.291507 -83.722597 82 34941ft 493kts
25-Apr-15 17:03 43.303565 -83.535263 82 34941ft 493kts
25-Apr-15 17:04 43.315339 -83.347244 83 34944ft 493kts
25-Apr-15 17:05 43.326808 -83.159118 83 34945ft 493kts
25-Apr-15 17:06 43.337919 -82.971354 83 34943ft 493kts
25-Apr-15 17:07 43.348752 -82.783053 83 34944ft 493kts
25-Apr-15 17:08 43.359289 -82.594396 84 34935ft 494kts
25-Apr-15 17:09 43.369525 -82.405439 84 34932ft 494kts
25-Apr-15 17:10 43.379407 -82.217154 84 34925ft 495kts
25-Apr-15 17:11 43.389111 -82.026356 84 32728ft 509kts
25-Apr-15 17:12 43.398595 -81.833149 84 29409ft 496kts
25-Apr-15 17:13 43.407354 -81.647347 83 26987ft 478kts
25-Apr-15 17:14 43.415465 -81.469806 82 24009ft 445kts
25-Apr-15 17:15 43.422516 -81.308869 82 21579ft 399kts
25-Apr-15 17:16 43.428654 -81.163801 82 19460ft 369kts
25-Apr-15 17:17 43.434550 -81.022627 83 17333ft 367kts
25-Apr-15 17:18 43.440196 -80.882934 83 15250ft 362kts
25-Apr-15 17:19 43.445537 -80.746188 84 13247ft 353kts
25-Apr-15 17:20 43.450561 -80.613696 84 11244ft 337kts
25-Apr-15 17:21 43.454859 -80.493634 85 10273ft 290kts
25-Apr-15 17:22 43.458773 -80.389165 84 8995ft 257kts
25-Apr-15 17:23 43.472439 -80.296349 75 8354ft 222kts
25-Apr-15 17:24 43.486890 -80.214247 75 7426ft 218kts
25-Apr-15 17:25 43.488672 -80.128741 97 6542ft 231kts
25-Apr-15 17:26 43.478770 -80.041343 97 5728ft 229kts
25-Apr-15 17:27 43.468580 -79.954324 97 4923ft 229kts
25-Apr-15 17:28 43.493921 -79.884163 31 4107ft 224kts
25-Apr-15 17:29 43.544231 -79.841436 30 3418ft 195kts
25-Apr-15 17:30 43.581791 -79.796961 40 2990ft 141kts
25-Apr-15 17:31 43.608793 -79.758624 41 2364ft 136kts
25-Apr-15 17:32 43.634953 -79.720806 42 1709ft 137kts
25-Apr-15 17:33 43.660696 -79.683681 42 975ft 130kts
25-Apr-15 17:34 43.680737 -79.654613 46 583ft 32kts
25-Apr-15 17:35 43.686593 -79.645949 52 583ft 29kts
25-Apr-15 17:36 43.687826 -79.640654 76 583ft 5kts
25-Apr-15 17:37 43.690317 -79.636228 101 583ft 14kts
25-Apr-15 17:38 43.689248 -79.634741 136 583ft 13kts
25-Apr-15 17:39 43.689248 -79.634741 136 583ft 13kts
25-Apr-15 17:40 43.687068 -79.631873 136 583ft 11kts
25-Apr-15 17:41 43.684209 -79.628142 136 583ft 16kts
25-Apr-15 17:42 43.681365 -79.624387 136 583ft 12kts
25-Apr-15 17:43 43.679372 -79.620705 50 583ft 14kts
25-Apr-15 17:44 43.680579 -79.617558 132 583ft 6kts
25-Apr-15 17:45 43.680295 -79.617158 136 583ft 0kts
25-Apr-15 17:46 43.664419 -79.678245 42 853ft 127kts
25-Apr-15 17:47 43.672309 -79.666817 42 704ft 130kts
25-Apr-15 17:48 43.683579 -79.650429 47 583ft 30kts

Navigation Log

Ident Type
Flight plan parsing failed, navigation log unavailable